Time;durP1;ratioP1;P1;durP2;ratioP2;P2;SDS_P1;SDS_P2;PMS_P1;PMS_P2;Temp;Humidity;BMP_temperature;BMP_pressure;BME280_temperature;BME280_humidity;BME280_pressure;Samples;Min_cycle;Max_cycle;Signal;HPM_P1;HPM_P2
2021/08/03 00:00:51;;;;;;;0.50;0.50;;;24.40;57.10;;;;;;6243035;28;20124;-70
2021/08/03 00:04:09;;;;;;;0.30;0.30;;;24.50;57.30;;;;;;6243795;28;20029;-71
2021/08/03 00:07:12;;;;;;;0.20;0.20;;;24.40;57.20;;;;;;6243559;28;20043;-71
2021/08/03 00:10:17;;;;;;;0.30;0.30;;;24.50;57.30;;;;;;6243316;28;20048;-71
2021/08/03 00:13:18;;;;;;;;;;;24.40;57.10;;;;;;6239458;28;20022;-70
2021/08/03 00:16:19;;;;;;;0.70;0.38;;;24.50;57.30;;;;;;6226835;28;19905;-71
2021/08/03 00:19:25;;;;;;;0.57;0.40;;;24.40;57.10;;;;;;6242781;28;20057;-71
2021/08/03 00:22:26;;;;;;;1.05;0.40;;;24.40;57.10;;;;;;6242871;28;20396;-70
2021/08/03 00:25:28;;;;;;;1.00;0.40;;;24.40;57.20;;;;;;6242980;28;20042;-70
2021/08/03 00:28:31;;;;;;;0.63;0.30;;;24.40;57.20;;;;;;6242356;28;20284;-71
2021/08/03 00:31:31;;;;;;;0.30;0.30;;;24.40;57.20;;;;;;6242981;28;20030;-71
2021/08/03 00:34:35;;;;;;;0.40;0.40;;;24.40;57.10;;;;;;6242611;28;20526;-73
2021/08/03 00:37:36;;;;;;;1.33;0.50;;;24.40;57.10;;;;;;6242674;28;20021;-70
2021/08/03 00:40:46;;;;;;;0.32;0.32;;;24.40;57.10;;;;;;6242487;28;20014;-70
2021/08/03 00:43:46;;;;;;;0.20;0.20;;;24.40;57.10;;;;;;6226923;28;20025;-70
2021/08/03 00:46:47;;;;;;;0.30;0.30;;;24.40;57.20;;;;;;6242415;28;20485;-71
2021/08/03 00:49:48;;;;;;;0.47;0.30;;;24.40;57.20;;;;;;6241536;28;20033;-71
2021/08/03 00:52:48;;;;;;;0.40;0.30;;;24.50;57.20;;;;;;6242228;28;20380;-71
2021/08/03 00:55:49;;;;;;;0.30;0.30;;;24.40;57.20;;;;;;6242121;28;20060;-71
2021/08/03 00:58:50;;;;;;;0.50;0.43;;;24.40;57.10;;;;;;6242611;28;20025;-71
2021/08/03 01:01:50;;;;;;;0.20;0.20;;;24.40;57.10;;;;;;6240964;28;20435;-71
2021/08/03 01:04:51;;;;;;;0.30;0.30;;;24.40;57.10;;;;;;6240737;28;20076;-70
2021/08/03 01:08:19;;;;;;;0.40;0.32;;;24.40;57.10;;;;;;6230307;28;20381;-71
2021/08/03 01:11:50;;;;;;;0.20;0.20;;;24.40;57.10;;;;;;6217342;28;20030;-71
2021/08/03 01:15:00;;;;;;;0.43;0.30;;;24.40;57.20;;;;;;6236956;28;20033;-70
2021/08/03 01:18:13;;;;;;;0.28;0.25;;;24.40;57.10;;;;;;6241790;28;20080;-71
2021/08/03 01:21:28;;;;;;;0.28;0.20;;;24.40;57.20;;;;;;6241133;28;20018;-71
2021/08/03 01:24:41;;;;;;;2.17;0.50;;;24.40;57.10;;;;;;6240797;28;20040;-71
2021/08/03 01:28:15;;;;;;;0.88;0.40;;;24.40;57.10;;;;;;6242165;28;20037;-71
2021/08/03 01:31:21;;;;;;;0.32;0.30;;;24.40;57.20;;;;;;6241332;28;20074;-71
2021/08/03 01:34:24;;;;;;;0.30;0.30;;;24.50;57.20;;;;;;6240915;28;20083;-71
2021/08/03 01:37:28;;;;;;;0.38;0.38;;;24.40;57.10;;;;;;6241037;28;20088;-71
2021/08/03 01:40:29;;;;;;;0.45;0.32;;;24.50;57.20;;;;;;6240891;28;20435;-71
2021/08/03 01:43:33;;;;;;;0.65;0.45;;;24.40;57.10;;;;;;6241232;28;20445;-71
2021/08/03 01:46:35;;;;;;;0.70;0.45;;;24.50;57.20;;;;;;6241130;28;20025;-70
2021/08/03 01:49:39;;;;;;;0.40;0.30;;;24.40;57.10;;;;;;6240378;28;20099;-70
2021/08/03 01:52:41;;;;;;;0.50;0.45;;;24.50;57.20;;;;;;6240739;28;20021;-70
2021/08/03 01:55:42;;;;;;;0.68;0.30;;;24.40;57.10;;;;;;6239743;28;20080;-70
2021/08/03 01:58:43;;;;;;;0.20;0.20;;;24.40;57.20;;;;;;6240625;28;20110;-70
2021/08/03 02:01:45;;;;;;;0.45;0.30;;;24.40;57.20;;;;;;6239411;28;20423;-71
2021/08/03 02:04:47;;;;;;;0.70;0.32;;;24.40;57.10;;;;;;6240151;28;20029;-70
2021/08/03 02:07:49;;;;;;;0.30;0.30;;;24.50;57.20;;;;;;6220835;28;20391;-70
2021/08/03 02:10:49;;;;;;;0.85;0.50;;;24.40;57.20;;;;;;6239908;28;20034;-70
2021/08/03 02:13:50;;;;;;;0.43;0.32;;;24.40;57.10;;;;;;6234185;28;20034;-70
2021/08/03 02:16:51;;;;;;;0.40;0.40;;;24.40;57.10;;;;;;6236031;28;20045;-70
2021/08/03 02:19:51;;;;;;;0.65;0.45;;;24.40;57.10;;;;;;6239837;28;20114;-70
2021/08/03 02:22:52;;;;;;;0.63;0.40;;;24.50;57.20;;;;;;6240259;28;20026;-70
2021/08/03 02:25:53;;;;;;;0.50;0.40;;;24.40;57.10;;;;;;6240012;28;20037;-70
2021/08/03 02:28:53;;;;;;;0.55;0.40;;;24.40;57.10;;;;;;6239597;28;20053;-70
2021/08/03 02:32:20;;;;;;;0.25;0.20;;;24.50;57.20;;;;;;6239758;28;20117;-70
2021/08/03 02:35:27;;;;;;;0.52;0.40;;;24.40;57.10;;;;;;6237038;28;20087;-71
2021/08/03 02:38:29;;;;;;;0.47;0.30;;;24.40;57.10;;;;;;6240302;28;20080;-71
2021/08/03 02:41:31;;;;;;;0.30;0.30;;;24.50;57.20;;;;;;6239323;28;20029;-70
2021/08/03 02:44:32;;;;;;;0.43;0.38;;;24.40;57.60;;;;;;6239132;28;20080;-71
2021/08/03 02:47:42;;;;;;;0.30;0.30;;;24.40;57.20;;;;;;6239746;28;20030;-71
2021/08/03 02:50:45;;;;;;;0.32;0.20;;;24.40;57.10;;;;;;6239414;28;20530;-71
2021/08/03 02:53:47;;;;;;;0.32;0.22;;;24.40;57.10;;;;;;6239746;28;20021;-71
2021/08/03 02:56:51;;;;;;;0.28;0.28;;;24.40;57.80;;;;;;6239507;28;20081;-71
2021/08/03 02:59:56;;;;;;;0.32;0.32;;;24.50;57.20;;;;;;6238768;28;20147;-70
2021/08/03 03:02:57;;;;;;;0.60;0.30;;;24.40;57.10;;;;;;6239094;28;20037;-71
2021/08/03 03:06:02;;;;;;;0.57;0.40;;;24.40;57.10;;;;;;6237225;28;20273;-70
2021/08/03 03:09:03;;;;;;;0.32;0.32;;;24.50;57.20;;;;;;6239007;28;20026;-71
2021/08/03 03:12:05;;;;;;;0.30;0.30;;;24.40;57.10;;;;;;6239517;28;20036;-70
2021/08/03 03:15:06;;;;;;;0.30;0.30;;;24.40;57.10;;;;;;6236951;28;20551;-71
2021/08/03 03:18:07;;;;;;;0.30;0.30;;;24.40;57.10;;;;;;6244159;28;20065;-71
2021/08/03 03:21:08;;;;;;;0.82;0.40;;;24.40;57.20;;;;;;6243990;28;20031;-70
2021/08/03 03:24:09;;;;;;;0.30;0.30;;;24.40;57.10;;;;;;6244997;28;20116;-71
2021/08/03 03:27:10;;;;;;;0.40;0.25;;;24.50;57.20;;;;;;6243934;28;20038;-71
2021/08/03 03:30:16;;;;;;;0.30;0.30;;;24.40;57.10;;;;;;6243854;28;20049;-70
2021/08/03 03:33:17;;;;;;;0.40;0.35;;;24.40;57.10;;;;;;6242433;28;20064;-71
2021/08/03 03:36:24;;;;;;;0.38;0.30;;;24.40;57.20;;;;;;6243677;28;20037;-71
2021/08/03 03:39:25;;;;;;;0.50;0.40;;;24.40;57.10;;;;;;6243836;28;20017;-71
2021/08/03 03:42:30;;;;;;;0.40;0.40;;;24.40;57.10;;;;;;6243368;28;20040;-71
2021/08/03 03:45:32;;;;;;;0.40;0.40;;;24.50;57.20;;;;;;6243773;28;20076;-71
2021/08/03 03:48:37;;;;;;;0.47;0.40;;;24.40;57.10;;;;;;6243561;28;20030;-70
2021/08/03 03:51:43;;;;;;;0.40;0.30;;;24.50;57.20;;;;;;6241426;28;20030;-71
2021/08/03 03:54:45;;;;;;;0.55;0.43;;;24.40;57.10;;;;;;6243483;28;20026;-70
2021/08/03 03:57:46;;;;;;;0.30;0.30;;;24.40;57.10;;;;;;6243826;28;20030;-71
2021/08/03 04:00:48;;;;;;;0.40;0.30;;;24.40;57.10;;;;;;6242974;28;20071;-71
2021/08/03 04:03:51;;;;;;;0.40;0.40;;;24.40;57.10;;;;;;6243459;28;20040;-71
2021/08/03 04:06:51;;;;;;;0.50;0.30;;;24.40;57.10;;;;;;6239333;28;20530;-71
2021/08/03 04:10:04;;;;;;;0.50;0.40;;;24.40;57.10;;;;;;6242995;28;20049;-71
2021/08/03 04:13:05;;;;;;;0.50;0.40;;;24.40;57.10;;;;;;6240714;28;20022;-70
2021/08/03 04:16:06;;;;;;;0.57;0.43;;;24.50;57.20;;;;;;6231835;28;20087;-70
2021/08/03 04:19:06;;;;;;;0.30;0.30;;;24.40;57.10;;;;;;6242647;28;20109;-72
2021/08/03 04:22:07;;;;;;;0.40;0.40;;;24.40;57.10;;;;;;6242836;28;20076;-71
2021/08/03 04:25:08;;;;;;;0.35;0.35;;;24.40;57.10;;;;;;6242765;28;20053;-71
2021/08/03 04:28:09;;;;;;;0.50;0.43;;;24.40;57.10;;;;;;6242516;28;20044;-71
2021/08/03 04:31:09;;;;;;;0.98;0.40;;;24.50;57.20;;;;;;6243071;28;20655;-71
2021/08/03 04:34:10;;;;;;;0.35;0.30;;;24.50;57.10;;;;;;6242826;28;20503;-71
2021/08/03 04:37:11;;;;;;;0.52;0.52;;;24.40;57.10;;;;;;6243241;28;20033;-70
2021/08/03 04:40:16;;;;;;;0.80;0.50;;;24.40;57.10;;;;;;6241707;28;20025;-71
2021/08/03 04:43:16;;;;;;;0.60;0.60;;;24.40;57.10;;;;;;6242056;28;20463;-71
2021/08/03 04:46:17;;;;;;;0.50;0.47;;;24.40;57.10;;;;;;6242066;28;20046;-71
2021/08/03 04:49:17;;;;;;;0.60;0.50;;;24.40;57.10;;;;;;6242040;28;20029;-71
2021/08/03 04:52:18;;;;;;;0.68;0.60;;;24.40;57.00;;;;;;6242049;28;20034;-71
2021/08/03 04:55:18;;;;;;;0.73;0.47;;;24.40;57.10;;;;;;6242065;28;20088;-71
2021/08/03 04:58:19;;;;;;;0.50;0.50;;;24.50;57.20;;;;;;6241968;28;20222;-71
2021/08/03 05:01:19;;;;;;;0.60;0.60;;;24.40;57.10;;;;;;6240009;28;20033;-71
2021/08/03 05:04:20;;;;;;;0.70;0.60;;;24.40;57.10;;;;;;6241543;28;20032;-70
2021/08/03 05:07:20;;;;;;;0.52;0.52;;;24.40;57.10;;;;;;6237450;28;20690;-71
2021/08/03 05:10:21;;;;;;;0.75;0.55;;;24.40;57.10;;;;;;6241811;28;20091;-71
2021/08/03 05:13:21;;;;;;;0.65;0.50;;;24.40;57.10;;;;;;6236575;28;20438;-70
2021/08/03 05:16:22;;;;;;;1.77;0.50;;;24.40;57.10;;;;;;6240878;28;20025;-70
2021/08/03 05:19:22;;;;;;;1.10;0.65;;;24.40;57.10;;;;;;6241449;28;20017;-70
2021/08/03 05:22:24;;;;;;;0.60;0.60;;;24.40;57.10;;;;;;6241089;28;20037;-70
2021/08/03 05:25:25;;;;;;;0.85;0.60;;;24.40;57.10;;;;;;6241795;28;20496;-70
2021/08/03 05:28:26;;;;;;;0.68;0.60;;;24.40;57.10;;;;;;6241328;28;20075;-70
2021/08/03 05:31:26;;;;;;;0.70;0.70;;;24.40;57.10;;;;;;6241328;28;20104;-70
2021/08/03 05:34:27;;;;;;;0.50;0.50;;;24.40;57.10;;;;;;6241117;28;20270;-70
2021/08/03 05:37:27;;;;;;;0.60;0.60;;;24.40;57.10;;;;;;6240793;28;20105;-70
2021/08/03 05:40:28;;;;;;;0.88;0.60;;;24.40;57.10;;;;;;6240676;28;20120;-71
2021/08/03 05:43:28;;;;;;;0.57;0.57;;;24.40;57.10;;;;;;6240856;28;20037;-71
2021/08/03 05:46:30;;;;;;;0.70;0.70;;;24.40;57.10;;;;;;6239228;28;20041;-70
2021/08/03 05:49:31;;;;;;;1.02;0.80;;;24.40;57.10;;;;;;6240789;28;20026;-71
2021/08/03 05:52:32;;;;;;;0.60;0.60;;;24.40;57.10;;;;;;6240587;28;20703;-71
2021/08/03 05:55:33;;;;;;;0.60;0.50;;;24.40;57.10;;;;;;6240348;28;20543;-70
2021/08/03 05:58:33;;;;;;;0.77;0.60;;;24.40;57.10;;;;;;6240429;28;20026;-71
2021/08/03 06:01:34;;;;;;;0.68;0.57;;;24.50;57.20;;;;;;6235229;28;20535;-71
2021/08/03 06:04:34;;;;;;;0.70;0.70;;;24.40;57.10;;;;;;6236158;28;20017;-71
2021/08/03 06:07:40;;;;;;;0.85;0.85;;;24.40;57.10;;;;;;6242750;28;20123;-71
2021/08/03 06:10:43;;;;;;;0.60;0.60;;;24.40;57.10;;;;;;6243213;28;20033;-71
2021/08/03 06:13:47;;;;;;;0.70;0.70;;;24.40;57.10;;;;;;6235028;28;20489;-71
2021/08/03 06:16:52;;;;;;;0.65;0.65;;;24.40;57.10;;;;;;6237106;28;20548;-71
2021/08/03 06:19:52;;;;;;;1.10;0.80;;;24.50;57.20;;;;;;6231907;28;20030;-70
2021/08/03 06:22:54;;;;;;;0.88;0.73;;;24.40;57.10;;;;;;6242657;28;20041;-71
2021/08/03 06:26:00;;;;;;;0.98;0.70;;;24.50;57.10;;;;;;6242595;28;20030;-70
2021/08/03 06:29:02;;;;;;;0.80;0.80;;;24.40;57.00;;;;;;6242939;28;20033;-71
2021/08/03 06:32:04;;;;;;;1.10;0.90;;;24.40;57.10;;;;;;6242542;28;20539;-71
2021/08/03 06:35:04;;;;;;;0.68;0.68;;;24.40;57.00;;;;;;6242215;28;20030;-71
2021/08/03 06:38:05;;;;;;;1.10;1.00;;;24.40;57.00;;;;;;6242245;28;20385;-71
2021/08/03 06:41:33;;;;;;;0.80;0.80;;;24.50;57.20;;;;;;6241935;28;20436;-71
2021/08/03 06:44:43;;;;;;;1.05;0.82;;;24.50;57.20;;;;;;6242088;28;20052;-70
2021/08/03 06:47:54;;;;;;;0.63;0.60;;;24.40;57.10;;;;;;6241848;28;20143;-70
2021/08/03 06:51:14;;;;;;;1.00;0.90;;;24.40;57.10;;;;;;6239649;28;20018;-71
2021/08/03 06:54:16;;;;;;;0.82;0.80;;;24.40;57.00;;;;;;6241589;28;20040;-70
2021/08/03 06:57:18;;;;;;;0.70;0.70;;;24.40;57.00;;;;;;6241642;28;20072;-71
2021/08/03 07:00:21;;;;;;;2.05;0.82;;;24.40;57.00;;;;;;6240652;28;20026;-71
2021/08/03 07:03:24;;;;;;;9.45;1.30;;;24.40;57.10;;;;;;6241424;28;20044;-71
2021/08/03 07:06:27;;;;;;;4.95;1.30;;;24.40;56.60;;;;;;6238978;28;20029;-71
2021/08/03 07:09:28;;;;;;;2.28;1.35;;;24.50;56.60;;;;;;6241495;28;20515;-71
2021/08/03 07:12:30;;;;;;;5.50;0.98;;;24.50;56.80;;;;;;6239405;28;20116;-71
2021/08/03 07:15:31;;;;;;;2.75;1.20;;;24.50;56.70;;;;;;6239104;28;20021;-71
2021/08/03 07:18:33;;;;;;;1.75;1.15;;;24.40;56.60;;;;;;6242632;28;20358;-71
2021/08/03 07:21:38;;;;;;;4.70;1.00;;;24.50;56.80;;;;;;6243864;28;20021;-71
2021/08/03 07:24:40;;;;;;;;;;;24.40;56.80;;;;;;6243712;28;20033;-71
2021/08/03 07:27:41;;;;;;;2.33;1.00;;;24.50;56.90;;;;;;6244152;28;19913;-71
2021/08/03 07:30:42;;;;;;;2.38;1.00;;;24.40;57.00;;;;;;6243604;28;20091;-71
2021/08/03 07:33:43;;;;;;;2.00;1.00;;;24.50;57.10;;;;;;6242257;28;20026;-71
2021/08/03 07:36:43;;;;;;;1.75;1.00;;;24.40;57.00;;;;;;6242174;28;20032;-71
2021/08/03 07:39:44;;;;;;;5.13;1.30;;;24.40;57.00;;;;;;6238732;28;20026;-71
2021/08/03 07:42:45;;;;;;;4.03;1.10;;;24.40;57.10;;;;;;6241264;28;20044;-71
2021/08/03 07:45:45;;;;;;;6.05;1.40;;;24.50;57.30;;;;;;6243150;28;20029;-71
2021/08/03 07:48:50;;;;;;;6.50;1.42;;;24.50;57.30;;;;;;6241384;28;20083;-71
2021/08/03 07:51:52;;;;;;;3.90;1.05;;;24.50;57.30;;;;;;6242801;28;20349;-70
2021/08/03 07:54:52;;;;;;;4.47;1.02;;;24.50;57.30;;;;;;6243134;28;20034;-71
2021/08/03 07:57:53;;;;;;;5.68;1.23;;;24.50;57.40;;;;;;6243301;28;20017;-70
2021/08/03 08:00:53;;;;;;;5.45;1.10;;;24.50;58.20;;;;;;6244356;28;20100;-70
2021/08/03 08:03:54;;;;;;;3.85;1.40;;;24.50;57.50;;;;;;6246816;28;20392;-70
2021/08/03 08:06:55;;;;;;;1.50;1.00;;;24.40;57.40;;;;;;6247225;28;20033;-71
2021/08/03 08:09:55;;;;;;;4.65;1.27;;;24.50;57.50;;;;;;6246047;28;20029;-70
2021/08/03 08:12:56;;;;;;;3.80;1.20;;;24.50;57.40;;;;;;6245635;28;20029;-71
2021/08/03 08:15:56;;;;;;;2.28;1.20;;;24.50;57.40;;;;;;6222994;28;20026;-70
2021/08/03 08:18:57;;;;;;;2.88;1.17;;;24.50;57.40;;;;;;6237543;28;20460;-71
2021/08/03 08:21:57;;;;;;;4.07;1.00;;;24.50;57.40;;;;;;6247122;28;20029;-71
2021/08/03 08:24:58;;;;;;;2.40;1.20;;;24.40;57.30;;;;;;6246681;28;20040;-70
2021/08/03 08:27:58;;;;;;;1.63;1.10;;;24.40;57.30;;;;;;6246731;28;20034;-70
2021/08/03 08:30:59;;;;;;;2.22;1.23;;;24.40;57.30;;;;;;6246933;28;20083;-71
2021/08/03 08:33:59;;;;;;;3.88;1.05;;;24.40;57.30;;;;;;6246136;28;20427;-71
2021/08/03 08:37:00;;;;;;;1.17;0.95;;;24.50;57.30;;;;;;6241742;28;20437;-70
2021/08/03 08:40:01;;;;;;;2.03;1.20;;;24.40;57.30;;;;;;6246223;28;20075;-71
2021/08/03 08:43:02;;;;;;;1.10;1.00;;;24.40;57.30;;;;;;6245058;28;20033;-70
2021/08/03 08:46:05;;;;;;;3.97;1.20;;;24.40;57.30;;;;;;6246887;28;20120;-70
2021/08/03 08:49:06;;;;;;;4.03;1.20;;;24.40;57.30;;;;;;6245994;28;20037;-71
2021/08/03 08:52:07;;;;;;;2.00;1.17;;;24.40;57.30;;;;;;6246240;28;20455;-70
2021/08/03 08:55:09;;;;;;;4.90;1.02;;;24.40;57.20;;;;;;6244502;28;20030;-71
2021/08/03 08:58:10;;;;;;;1.50;0.93;;;24.40;57.30;;;;;;6244275;28;20038;-71
2021/08/03 09:01:11;;;;;;;2.08;1.35;;;24.40;57.20;;;;;;6245873;28;20095;-71
2021/08/03 09:04:11;;;;;;;1.88;1.08;;;24.40;57.20;;;;;;6243252;28;20022;-71
2021/08/03 09:07:12;;;;;;;2.85;1.05;;;24.50;57.30;;;;;;6246113;28;20034;-71
2021/08/03 09:10:36;;;;;;;1.58;1.05;;;24.40;57.20;;;;;;6245810;28;20025;-70
2021/08/03 09:14:00;;;;;;;1.05;0.90;;;24.50;57.30;;;;;;6239521;28;20057;-71
2021/08/03 09:17:01;;;;;;;1.70;1.15;;;24.40;57.20;;;;;;6246087;28;20044;-71
2021/08/03 09:20:13;;;;;;;1.83;1.00;;;24.40;57.20;;;;;;6245319;28;20021;-71
2021/08/03 09:23:15;;;;;;;2.45;1.13;;;24.40;57.20;;;;;;6244073;28;20029;-71
2021/08/03 09:26:16;;;;;;;1.48;1.17;;;24.40;57.20;;;;;;6245457;28;20041;-71
2021/08/03 09:29:18;;;;;;;1.45;1.20;;;24.40;57.20;;;;;;6245606;28;20033;-71
2021/08/03 09:32:31;;;;;;;1.73;1.02;;;24.40;57.20;;;;;;6245113;28;20156;-71
2021/08/03 09:35:33;;;;;;;2.88;1.38;;;24.40;57.20;;;;;;6245023;28;20507;-71
2021/08/03 09:38:35;;;;;;;1.60;0.90;;;24.40;57.20;;;;;;6245772;28;20091;-71
2021/08/03 09:41:46;;;;;;;1.75;1.08;;;24.40;57.20;;;;;;6245014;28;20022;-71
2021/08/03 09:44:51;;;;;;;2.00;1.10;;;24.50;57.30;;;;;;6244311;28;20144;-70
2021/08/03 09:48:06;;;;;;;1.90;1.35;;;24.40;57.20;;;;;;6245578;28;20163;-70
2021/08/03 09:51:16;;;;;;;1.87;0.93;;;24.40;57.20;;;;;;6244413;28;20129;-71
2021/08/03 09:54:17;;;;;;;1.27;0.98;;;24.50;57.30;;;;;;6244868;28;20496;-70
2021/08/03 09:57:23;;;;;;;1.10;1.00;;;24.40;57.20;;;;;;6244780;28;20544;-71
2021/08/03 10:00:34;;;;;;;1.17;1.00;;;24.40;57.20;;;;;;6245048;28;20029;-71
2021/08/03 10:03:36;;;;;;;1.25;1.05;;;24.40;57.20;;;;;;6244511;28;20033;-71
2021/08/03 10:06:38;;;;;;;1.00;0.90;;;24.40;57.20;;;;;;6244250;28;20059;-71
2021/08/03 10:09:39;;;;;;;1.50;0.88;;;24.50;57.30;;;;;;6244387;28;20188;-71
2021/08/03 10:12:39;;;;;;;2.22;1.08;;;24.40;57.20;;;;;;6244192;28;20029;-70
2021/08/03 10:15:40;;;;;;;1.30;1.10;;;24.40;57.20;;;;;;6230132;28;20026;-71
2021/08/03 10:18:47;;;;;;;1.77;1.45;;;24.50;57.30;;;;;;6243906;28;20037;-71
2021/08/03 10:22:12;;;;;;;1.52;1.10;;;24.40;57.30;;;;;;6244010;28;20034;-71
2021/08/03 10:25:15;;;;;;;1.55;1.20;;;24.40;57.30;;;;;;6243916;28;20029;-70
2021/08/03 10:28:22;;;;;;;1.38;1.13;;;24.40;57.20;;;;;;6244204;28;20053;-71
2021/08/03 10:31:36;;;;;;;1.02;0.93;;;24.50;57.30;;;;;;6244071;28;20038;-71
2021/08/03 10:34:43;;;;;;;1.30;1.10;;;24.40;57.20;;;;;;6243882;28;20521;-71
2021/08/03 10:37:59;;;;;;;1.73;1.10;;;24.40;57.10;;;;;;6244095;28;20091;-71
2021/08/03 10:41:02;;;;;;;1.80;1.20;;;24.40;57.20;;;;;;6243639;28;20029;-70
2021/08/03 10:44:04;;;;;;;1.77;1.15;;;24.50;57.20;;;;;;6243998;28;20101;-70
2021/08/03 10:47:31;;;;;;;1.52;1.17;;;24.40;57.10;;;;;;6243770;28;20439;-71
2021/08/03 10:50:32;;;;;;;1.50;1.10;;;24.50;57.20;;;;;;6243583;28;20512;-70
2021/08/03 10:53:52;;;;;;;1.70;1.17;;;24.40;57.10;;;;;;6243768;28;20017;-70
2021/08/03 10:56:56;;;;;;;1.67;1.13;;;24.40;57.10;;;;;;6241954;28;20056;-70
2021/08/03 11:00:00;;;;;;;1.42;1.10;;;24.40;57.10;;;;;;6225932;28;20453;-71
2021/08/03 11:03:00;;;;;;;1.35;1.00;;;24.40;57.10;;;;;;6237265;28;20590;-71
2021/08/03 11:06:04;;;;;;;2.08;1.10;;;24.40;57.20;;;;;;6240101;28;20095;-70
2021/08/03 11:09:32;;;;;;;1.58;1.08;;;24.40;57.20;;;;;;6242394;28;20033;-71
2021/08/03 11:12:38;;;;;;;1.90;1.10;;;24.50;57.30;;;;;;6238811;28;20546;-71
2021/08/03 11:15:40;;;;;;;1.75;0.90;;;24.40;57.20;;;;;;6228230;28;20021;-70
2021/08/03 11:18:44;;;;;;;1.67;1.13;;;24.40;57.20;;;;;;6242154;28;20022;-71
2021/08/03 11:21:45;;;;;;;1.48;0.88;;;24.40;57.20;;;;;;6241843;28;20113;-71
2021/08/03 11:24:45;;;;;;;2.47;1.35;;;24.50;57.30;;;;;;6242650;28;20021;-71
2021/08/03 11:27:46;;;;;;;2.40;1.30;;;24.40;57.20;;;;;;6241636;28;20109;-70
2021/08/03 11:30:49;;;;;;;2.08;1.00;;;24.40;57.20;;;;;;6241966;28;20032;-70
2021/08/03 11:33:55;;;;;;;4.15;1.40;;;24.40;57.20;;;;;;6241332;28;20503;-71
2021/08/03 11:37:05;;;;;;;2.90;1.05;;;24.40;57.30;;;;;;6245738;28;20033;-72
2021/08/03 11:40:06;;;;;;;2.05;1.10;;;24.40;57.40;;;;;;6246713;28;20029;-70
2021/08/03 11:43:07;;;;;;;10.27;1.70;;;24.50;58.50;;;;;;6246614;28;20076;-72
2021/08/03 11:46:08;;;;;;;3.88;1.60;;;24.60;58.40;;;;;;6245522;28;20096;-71
2021/08/03 11:49:10;;;;;;;6.00;1.70;;;24.60;58.40;;;;;;6245970;28;20507;-72
2021/08/03 11:52:17;;;;;;;4.70;1.40;;;24.60;58.20;;;;;;6246527;28;20464;-72
2021/08/03 11:55:17;;;;;;;5.57;1.38;;;24.70;57.80;;;;;;6232823;28;20060;-71
2021/08/03 11:58:20;;;;;;;3.70;1.50;;;24.60;58.80;;;;;;6238363;28;20489;-71
2021/08/03 12:01:21;;;;;;;3.40;1.80;;;24.60;58.60;;;;;;6246280;28;20068;-69
2021/08/03 12:04:23;;;;;;;3.08;1.50;;;24.70;58.70;;;;;;6245564;28;20048;-70
2021/08/03 12:07:23;;;;;;;7.40;1.23;;;24.70;57.90;;;;;;6245446;28;20030;-69
2021/08/03 12:10:33;;;;;;;2.10;1.30;;;24.60;57.80;;;;;;6245892;28;20028;-70
2021/08/03 12:13:36;;;;;;;4.70;1.42;;;24.60;57.90;;;;;;6239488;28;20032;-70
2021/08/03 12:16:37;;;;;;;2.20;1.33;;;24.60;57.90;;;;;;6221172;28;20018;-70
2021/08/03 12:19:37;;;;;;;2.47;1.30;;;24.60;58.00;;;;;;6244814;28;20556;-69
2021/08/03 12:22:40;;;;;;;2.15;1.13;;;24.60;57.90;;;;;;6245234;28;20037;-69
2021/08/03 12:26:09;;;;;;;2.70;1.27;;;24.60;58.00;;;;;;6245956;28;20029;-70
2021/08/03 12:29:10;;;;;;;1.92;1.20;;;24.60;58.00;;;;;;6238523;28;20041;-69
2021/08/03 12:32:10;;;;;;;2.08;1.25;;;24.60;58.00;;;;;;6246287;28;20053;-70
2021/08/03 12:35:14;;;;;;;3.80;1.25;;;24.50;57.90;;;;;;6246293;28;20488;-70
2021/08/03 12:38:16;;;;;;;2.33;1.30;;;24.50;57.90;;;;;;6246551;28;20017;-70
2021/08/03 12:41:19;;;;;;;2.47;1.10;;;24.50;57.90;;;;;;6246547;28;20014;-70
2021/08/03 12:44:27;;;;;;;1.70;1.02;;;24.50;57.90;;;;;;6245987;28;20021;-69
2021/08/03 12:47:28;;;;;;;2.55;1.15;;;24.50;57.90;;;;;;6245805;28;20034;-69
2021/08/03 12:50:44;;;;;;;3.20;1.13;;;24.50;57.90;;;;;;6246418;28;20029;-69
2021/08/03 12:53:45;;;;;;;3.83;1.45;;;24.50;57.90;;;;;;6246243;28;20032;-70
2021/08/03 12:56:56;;;;;;;1.17;1.00;;;24.50;57.90;;;;;;6246180;28;20049;-70
2021/08/03 12:59:57;;;;;;;1.08;0.90;;;24.50;57.90;;;;;;6245821;28;20025;-69
2021/08/03 13:02:58;;;;;;;1.67;1.05;;;24.50;57.90;;;;;;6246469;28;20484;-69
2021/08/03 13:06:03;;;;;;;1.95;1.10;;;24.50;57.90;;;;;;6245834;28;20033;-70
2021/08/03 13:09:03;;;;;;;5.25;1.23;;;24.50;57.90;;;;;;6245738;28;20028;-70
2021/08/03 13:12:07;;;;;;;2.10;1.00;;;24.50;57.80;;;;;;6245867;28;20064;-70
2021/08/03 13:15:08;;;;;;;1.63;1.08;;;24.50;57.80;;;;;;6240677;28;20125;-70
2021/08/03 13:18:08;;;;;;;1.15;0.88;;;24.50;57.80;;;;;;6246150;28;20490;-70
2021/08/03 13:21:09;;;;;;;3.30;1.17;;;24.50;57.80;;;;;;6245613;28;20033;-70
2021/08/03 13:24:09;;;;;;;1.13;0.98;;;24.50;57.80;;;;;;6245522;28;20049;-70
2021/08/03 13:27:10;;;;;;;0.98;0.90;;;24.50;57.80;;;;;;6245689;28;20143;-70
2021/08/03 13:30:11;;;;;;;1.13;1.00;;;24.50;57.80;;;;;;6245686;28;20488;-70
2021/08/03 13:33:11;;;;;;;2.97;1.05;;;24.50;57.80;;;;;;6245101;28;20084;-70
2021/08/03 13:36:12;;;;;;;1.73;1.13;;;24.50;58.40;;;;;;6244425;28;20037;-70
2021/08/03 13:39:13;;;;;;;2.65;1.08;;;24.50;57.80;;;;;;6244913;28;20033;-70
2021/08/03 13:42:13;;;;;;;1.92;1.00;;;24.50;57.70;;;;;;6245419;28;20029;-70
2021/08/03 13:45:14;;;;;;;1.63;1.10;;;24.50;57.70;;;;;;6245530;28;20439;-70
2021/08/03 13:48:15;;;;;;;2.85;1.10;;;24.50;57.70;;;;;;6245176;28;20029;-70
2021/08/03 13:51:15;;;;;;;2.38;1.02;;;24.50;57.70;;;;;;6244722;28;20029;-70
2021/08/03 13:54:15;;;;;;;1.20;0.93;;;24.50;57.70;;;;;;6244704;28;20030;-70
2021/08/03 13:57:16;;;;;;;1.48;1.00;;;24.50;57.70;;;;;;6244708;28;20089;-69
2021/08/03 14:00:17;;;;;;;1.55;0.82;;;24.50;57.70;;;;;;6243864;28;20528;-70
2021/08/03 14:03:17;;;;;;;1.42;1.10;;;24.50;57.70;;;;;;6244522;28;20022;-70
2021/08/03 14:06:20;;;;;;;1.20;1.10;;;24.50;57.70;;;;;;6243491;28;20044;-70
2021/08/03 14:09:21;;;;;;;1.27;0.90;;;24.50;57.70;;;;;;6244608;28;20022;-70
2021/08/03 14:12:22;;;;;;;1.00;0.90;;;24.50;57.70;;;;;;6244221;28;20033;-70
2021/08/03 14:15:22;;;;;;;1.63;0.90;;;24.50;57.70;;;;;;6227818;28;20025;-69
2021/08/03 14:18:24;;;;;;;0.95;0.88;;;24.50;57.70;;;;;;6244827;28;20028;-70
2021/08/03 14:21:24;;;;;;;1.15;1.02;;;24.50;57.70;;;;;;6243951;28;20388;-70
2021/08/03 14:24:25;;;;;;;1.60;0.90;;;24.50;57.60;;;;;;6244404;28;20025;-70
2021/08/03 14:27:25;;;;;;;2.15;1.08;;;24.50;57.60;;;;;;6242564;28;20077;-69
2021/08/03 14:30:26;;;;;;;0.70;0.70;;;24.40;57.50;;;;;;6243013;28;20053;-69
2021/08/03 14:33:26;;;;;;;1.35;0.90;;;24.50;57.60;;;;;;6243951;28;20064;-70
2021/08/03 14:36:28;;;;;;;1.10;1.00;;;24.50;57.60;;;;;;6244208;28;20033;-70
2021/08/03 14:39:28;;;;;;;1.77;1.15;;;24.50;57.60;;;;;;6243849;28;20065;-70
2021/08/03 14:42:29;;;;;;;2.03;1.13;;;24.40;57.50;;;;;;6243580;28;20036;-70
2021/08/03 14:45:30;;;;;;;2.28;0.90;;;24.40;57.50;;;;;;6244014;28;20034;-70
2021/08/03 14:48:30;;;;;;;1.17;0.90;;;24.40;57.50;;;;;;6244406;28;20696;-70
2021/08/03 14:51:31;;;;;;;0.98;0.85;;;24.40;57.50;;;;;;6244649;28;20030;-70
2021/08/03 14:54:32;;;;;;;1.30;0.90;;;24.40;57.50;;;;;;6244468;28;20056;-69
2021/08/03 14:57:32;;;;;;;1.15;0.88;;;24.50;57.60;;;;;;6243852;28;20068;-70
2021/08/03 15:00:33;;;;;;;1.10;0.90;;;24.50;57.60;;;;;;6244649;28;20022;-69
2021/08/03 15:03:33;;;;;;;1.20;1.02;;;24.40;57.50;;;;;;6243615;28;20088;-69
2021/08/03 15:06:35;;;;;;;1.00;0.90;;;24.40;57.50;;;;;;6243868;28;20046;-70
2021/08/03 15:09:36;;;;;;;1.40;1.10;;;24.40;57.50;;;;;;6245926;28;20025;-70
2021/08/03 15:12:36;;;;;;;1.00;0.88;;;24.40;57.50;;;;;;6251765;28;20035;-70
2021/08/03 15:15:37;;;;;;;1.20;0.90;;;24.40;57.50;;;;;;6228827;28;20018;-70
2021/08/03 15:18:37;;;;;;;1.15;1.00;;;24.50;57.60;;;;;;6247672;28;20071;-69
2021/08/03 15:21:38;;;;;;;1.17;0.88;;;24.50;57.60;;;;;;6251358;28;20032;-70
2021/08/03 15:24:38;;;;;;;1.00;0.90;;;24.40;57.50;;;;;;6252234;28;20028;-70
2021/08/03 15:27:39;;;;;;;1.08;0.90;;;24.40;57.50;;;;;;6251568;28;20041;-69
2021/08/03 15:30:39;;;;;;;1.23;1.02;;;24.40;57.50;;;;;;6251199;28;20029;-70
2021/08/03 15:33:41;;;;;;;0.80;0.80;;;24.40;57.50;;;;;;6251311;28;20040;-70
2021/08/03 15:36:41;;;;;;;1.25;0.85;;;24.40;57.50;;;;;;6251291;28;20514;-70
2021/08/03 15:39:42;;;;;;;0.85;0.85;;;24.50;57.60;;;;;;6251554;28;20053;-70
2021/08/03 15:42:42;;;;;;;1.02;0.88;;;24.40;57.50;;;;;;6251204;28;20088;-70
2021/08/03 15:45:43;;;;;;;0.70;0.70;;;24.40;57.50;;;;;;6251350;28;20345;-70
2021/08/03 15:48:43;;;;;;;1.00;0.80;;;24.40;57.50;;;;;;6248918;28;20037;-70
2021/08/03 15:51:44;;;;;;;1.25;0.90;;;24.40;57.50;;;;;;6251187;28;20040;-70
2021/08/03 15:54:45;;;;;;;0.73;0.70;;;24.40;57.50;;;;;;6251103;28;20370;-70